sensor_id;sensor_type;location;lat;lon;timestamp;P1;durP1;ratioP1;P2;durP2;ratioP2
58661;SDS011;44432;49.786;22.760;2023-06-14T00:00:21;13.90;;;11.10;;
58661;SDS011;44432;49.786;22.760;2023-06-14T00:03:11;11.90;;;10.20;;
58661;SDS011;44432;49.786;22.760;2023-06-14T00:05:45;14.70;;;10.70;;
58661;SDS011;44432;49.786;22.760;2023-06-14T00:08:16;13.30;;;10.20;;
58661;SDS011;44432;49.786;22.760;2023-06-14T00:10:49;14.30;;;11.10;;
58661;SDS011;44432;49.786;22.760;2023-06-14T00:13:19;12.80;;;10.10;;
58661;SDS011;44432;49.786;22.760;2023-06-14T00:15:51;15.10;;;10.30;;
58661;SDS011;44432;49.786;22.760;2023-06-14T00:18:23;14.00;;;10.20;;
58661;SDS011;44432;49.786;22.760;2023-06-14T00:20:57;11.60;;;10.00;;
58661;SDS011;44432;49.786;22.760;2023-06-14T00:23:27;14.00;;;9.80;;
58661;SDS011;44432;49.786;22.760;2023-06-14T00:25:58;12.80;;;9.50;;
58661;SDS011;44432;49.786;22.760;2023-06-14T00:28:29;14.60;;;9.40;;
58661;SDS011;44432;49.786;22.760;2023-06-14T00:30:59;12.20;;;9.20;;
58661;SDS011;44432;49.786;22.760;2023-06-14T00:33:30;14.30;;;9.40;;
58661;SDS011;44432;49.786;22.760;2023-06-14T00:36:01;14.20;;;9.60;;
58661;SDS011;44432;49.786;22.760;2023-06-14T00:38:31;14.50;;;10.10;;
58661;SDS011;44432;49.786;22.760;2023-06-14T00:41:02;12.00;;;9.60;;
58661;SDS011;44432;49.786;22.760;2023-06-14T00:43:33;16.10;;;9.60;;
58661;SDS011;44432;49.786;22.760;2023-06-14T00:46:04;11.30;;;9.30;;
58661;SDS011;44432;49.786;22.760;2023-06-14T00:48:34;13.50;;;9.70;;
58661;SDS011;44432;49.786;22.760;2023-06-14T00:51:08;12.40;;;10.00;;
58661;SDS011;44432;49.786;22.760;2023-06-14T00:53:38;13.30;;;9.70;;
58661;SDS011;44432;49.786;22.760;2023-06-14T00:56:13;13.40;;;9.10;;
58661;SDS011;44432;49.786;22.760;2023-06-14T00:58:44;14.20;;;9.30;;
58661;SDS011;44432;49.786;22.760;2023-06-14T01:01:15;11.90;;;9.70;;
58661;SDS011;44432;49.786;22.760;2023-06-14T01:03:46;12.30;;;10.20;;
58661;SDS011;44432;49.786;22.760;2023-06-14T01:06:19;12.50;;;9.70;;
58661;SDS011;44432;49.786;22.760;2023-06-14T01:09:03;11.90;;;9.00;;
58661;SDS011;44432;49.786;22.760;2023-06-14T01:11:44;12.60;;;9.10;;
58661;SDS011;44432;49.786;22.760;2023-06-14T01:14:20;11.90;;;9.40;;
58661;SDS011;44432;49.786;22.760;2023-06-14T01:16:53;12.40;;;9.40;;
58661;SDS011;44432;49.786;22.760;2023-06-14T01:19:24;11.50;;;9.80;;
58661;SDS011;44432;49.786;22.760;2023-06-14T01:21:56;13.90;;;10.60;;
58661;SDS011;44432;49.786;22.760;2023-06-14T01:24:29;14.90;;;10.80;;
58661;SDS011;44432;49.786;22.760;2023-06-14T01:27:01;14.00;;;10.30;;
58661;SDS011;44432;49.786;22.760;2023-06-14T01:29:33;12.80;;;9.90;;
58661;SDS011;44432;49.786;22.760;2023-06-14T01:32:07;12.50;;;9.80;;
58661;SDS011;44432;49.786;22.760;2023-06-14T01:34:38;14.30;;;10.50;;
58661;SDS011;44432;49.786;22.760;2023-06-14T01:37:09;13.30;;;10.90;;
58661;SDS011;44432;49.786;22.760;2023-06-14T01:39:41;13.40;;;10.00;;
58661;SDS011;44432;49.786;22.760;2023-06-14T01:42:13;15.50;;;10.40;;
58661;SDS011;44432;49.786;22.760;2023-06-14T01:44:45;16.60;;;10.80;;
58661;SDS011;44432;49.786;22.760;2023-06-14T01:47:17;12.80;;;9.60;;
58661;SDS011;44432;49.786;22.760;2023-06-14T01:49:48;13.10;;;9.80;;
58661;SDS011;44432;49.786;22.760;2023-06-14T01:52:19;11.90;;;9.40;;
58661;SDS011;44432;49.786;22.760;2023-06-14T01:54:51;13.90;;;9.40;;
58661;SDS011;44432;49.786;22.760;2023-06-14T01:57:23;14.00;;;10.50;;
58661;SDS011;44432;49.786;22.760;2023-06-14T01:59:55;14.30;;;10.80;;
58661;SDS011;44432;49.786;22.760;2023-06-14T02:02:25;14.50;;;10.00;;
58661;SDS011;44432;49.786;22.760;2023-06-14T02:04:56;11.20;;;9.10;;
58661;SDS011;44432;49.786;22.760;2023-06-14T02:07:27;14.20;;;9.80;;
58661;SDS011;44432;49.786;22.760;2023-06-14T02:09:57;15.10;;;12.00;;
58661;SDS011;44432;49.786;22.760;2023-06-14T02:12:28;13.50;;;10.70;;
58661;SDS011;44432;49.786;22.760;2023-06-14T02:14:59;14.70;;;10.20;;
58661;SDS011;44432;49.786;22.760;2023-06-14T02:17:31;13.30;;;10.70;;
58661;SDS011;44432;49.786;22.760;2023-06-14T02:20:02;13.80;;;10.20;;
58661;SDS011;44432;49.786;22.760;2023-06-14T02:22:34;13.00;;;9.80;;
58661;SDS011;44432;49.786;22.760;2023-06-14T02:25:04;15.60;;;10.90;;
58661;SDS011;44432;49.786;22.760;2023-06-14T02:27:36;15.10;;;10.50;;
58661;SDS011;44432;49.786;22.760;2023-06-14T02:30:07;16.40;;;10.80;;
58661;SDS011;44432;49.786;22.760;2023-06-14T02:32:39;14.90;;;10.80;;
58661;SDS011;44432;49.786;22.760;2023-06-14T02:35:10;15.30;;;10.40;;
58661;SDS011;44432;49.786;22.760;2023-06-14T02:37:41;13.60;;;10.70;;
58661;SDS011;44432;49.786;22.760;2023-06-14T02:40:12;15.40;;;10.90;;
58661;SDS011;44432;49.786;22.760;2023-06-14T02:42:43;15.60;;;11.20;;
58661;SDS011;44432;49.786;22.760;2023-06-14T02:45:13;13.60;;;10.80;;
58661;SDS011;44432;49.786;22.760;2023-06-14T02:47:44;17.20;;;11.00;;
58661;SDS011;44432;49.786;22.760;2023-06-14T02:50:15;12.80;;;10.30;;
58661;SDS011;44432;49.786;22.760;2023-06-14T02:52:46;13.10;;;10.30;;
58661;SDS011;44432;49.786;22.760;2023-06-14T02:55:16;15.80;;;10.90;;
58661;SDS011;44432;49.786;22.760;2023-06-14T02:57:48;15.10;;;10.30;;
58661;SDS011;44432;49.786;22.760;2023-06-14T03:00:19;12.10;;;10.30;;
58661;SDS011;44432;49.786;22.760;2023-06-14T03:02:51;13.70;;;10.80;;
58661;SDS011;44432;49.786;22.760;2023-06-14T03:05:22;14.70;;;11.20;;
58661;SDS011;44432;49.786;22.760;2023-06-14T03:07:55;13.70;;;11.20;;
58661;SDS011;44432;49.786;22.760;2023-06-14T03:10:26;14.90;;;11.60;;
58661;SDS011;44432;49.786;22.760;2023-06-14T03:12:57;15.10;;;11.20;;
58661;SDS011;44432;49.786;22.760;2023-06-14T03:15:28;15.40;;;10.90;;
58661;SDS011;44432;49.786;22.760;2023-06-14T03:18:01;13.90;;;11.60;;
58661;SDS011;44432;49.786;22.760;2023-06-14T03:20:32;14.90;;;11.90;;
58661;SDS011;44432;49.786;22.760;2023-06-14T03:23:03;14.70;;;11.90;;
58661;SDS011;44432;49.786;22.760;2023-06-14T03:25:34;17.70;;;11.70;;
58661;SDS011;44432;49.786;22.760;2023-06-14T03:28:06;15.20;;;12.00;;
58661;SDS011;44432;49.786;22.760;2023-06-14T03:30:37;16.90;;;12.00;;
58661;SDS011;44432;49.786;22.760;2023-06-14T03:33:07;15.50;;;12.00;;
58661;SDS011;44432;49.786;22.760;2023-06-14T03:35:38;16.70;;;12.60;;
58661;SDS011;44432;49.786;22.760;2023-06-14T03:38:09;20.80;;;13.20;;
58661;SDS011;44432;49.786;22.760;2023-06-14T03:40:40;18.60;;;13.70;;
58661;SDS011;44432;49.786;22.760;2023-06-14T03:43:10;16.40;;;12.60;;
58661;SDS011;44432;49.786;22.760;2023-06-14T03:45:41;16.10;;;12.60;;
58661;SDS011;44432;49.786;22.760;2023-06-14T03:48:12;16.10;;;12.60;;
58661;SDS011;44432;49.786;22.760;2023-06-14T03:50:43;14.50;;;11.70;;
58661;SDS011;44432;49.786;22.760;2023-06-14T03:53:15;15.30;;;11.50;;
58661;SDS011;44432;49.786;22.760;2023-06-14T03:55:48;14.50;;;12.40;;
58661;SDS011;44432;49.786;22.760;2023-06-14T03:58:20;16.00;;;11.80;;
58661;SDS011;44432;49.786;22.760;2023-06-14T04:00:50;14.20;;;11.60;;
58661;SDS011;44432;49.786;22.760;2023-06-14T04:03:21;14.60;;;11.40;;
58661;SDS011;44432;49.786;22.760;2023-06-14T04:05:52;17.50;;;11.60;;
58661;SDS011;44432;49.786;22.760;2023-06-14T04:08:24;15.40;;;11.20;;
58661;SDS011;44432;49.786;22.760;2023-06-14T04:10:54;15.90;;;11.50;;
58661;SDS011;44432;49.786;22.760;2023-06-14T04:13:25;16.50;;;13.60;;
58661;SDS011;44432;49.786;22.760;2023-06-14T04:15:56;14.50;;;11.30;;
58661;SDS011;44432;49.786;22.760;2023-06-14T04:18:26;14.10;;;11.20;;
58661;SDS011;44432;49.786;22.760;2023-06-14T04:20:57;15.90;;;11.10;;
58661;SDS011;44432;49.786;22.760;2023-06-14T04:23:28;16.70;;;10.50;;
58661;SDS011;44432;49.786;22.760;2023-06-14T04:25:58;14.20;;;11.00;;
58661;SDS011;44432;49.786;22.760;2023-06-14T04:28:30;14.40;;;10.30;;
58661;SDS011;44432;49.786;22.760;2023-06-14T04:31:05;15.20;;;10.40;;
58661;SDS011;44432;49.786;22.760;2023-06-14T04:33:36;13.40;;;10.70;;
58661;SDS011;44432;49.786;22.760;2023-06-14T04:36:11;14.70;;;11.40;;
58661;SDS011;44432;49.786;22.760;2023-06-14T04:38:41;13.50;;;10.90;;
58661;SDS011;44432;49.786;22.760;2023-06-14T04:41:13;12.70;;;10.90;;
58661;SDS011;44432;49.786;22.760;2023-06-14T04:43:43;13.10;;;10.30;;
58661;SDS011;44432;49.786;22.760;2023-06-14T04:46:16;14.20;;;10.10;;
58661;SDS011;44432;49.786;22.760;2023-06-14T04:48:46;12.90;;;10.30;;
58661;SDS011;44432;49.786;22.760;2023-06-14T04:51:18;14.60;;;10.80;;
58661;SDS011;44432;49.786;22.760;2023-06-14T04:53:57;15.00;;;11.70;;
58661;SDS011;44432;49.786;22.760;2023-06-14T04:56:29;15.80;;;11.10;;
58661;SDS011;44432;49.786;22.760;2023-06-14T04:59:00;11.30;;;10.10;;
58661;SDS011;44432;49.786;22.760;2023-06-14T05:01:32;13.90;;;10.50;;
58661;SDS011;44432;49.786;22.760;2023-06-14T05:04:05;12.10;;;9.60;;
58661;SDS011;44432;49.786;22.760;2023-06-14T05:06:35;17.70;;;11.50;;
58661;SDS011;44432;49.786;22.760;2023-06-14T05:09:06;13.10;;;10.10;;
58661;SDS011;44432;49.786;22.760;2023-06-14T05:11:37;13.80;;;10.80;;
58661;SDS011;44432;49.786;22.760;2023-06-14T05:14:10;14.90;;;11.60;;
58661;SDS011;44432;49.786;22.760;2023-06-14T05:16:41;14.80;;;11.50;;
58661;SDS011;44432;49.786;22.760;2023-06-14T05:19:11;14.80;;;11.20;;
58661;SDS011;44432;49.786;22.760;2023-06-14T05:21:42;15.20;;;11.30;;
58661;SDS011;44432;49.786;22.760;2023-06-14T05:24:13;15.50;;;11.10;;
58661;SDS011;44432;49.786;22.760;2023-06-14T05:26:44;16.30;;;11.00;;
58661;SDS011;44432;49.786;22.760;2023-06-14T05:29:16;16.60;;;11.00;;
58661;SDS011;44432;49.786;22.760;2023-06-14T05:31:47;15.20;;;11.00;;
58661;SDS011;44432;49.786;22.760;2023-06-14T05:34:17;14.90;;;11.90;;
58661;SDS011;44432;49.786;22.760;2023-06-14T05:36:48;16.20;;;11.40;;
58661;SDS011;44432;49.786;22.760;2023-06-14T05:39:19;14.00;;;10.40;;
58661;SDS011;44432;49.786;22.760;2023-06-14T05:41:51;15.00;;;11.10;;
58661;SDS011;44432;49.786;22.760;2023-06-14T05:44:23;16.40;;;12.60;;
58661;SDS011;44432;49.786;22.760;2023-06-14T05:46:53;17.30;;;11.50;;
58661;SDS011;44432;49.786;22.760;2023-06-14T05:49:24;14.20;;;10.70;;
58661;SDS011;44432;49.786;22.760;2023-06-14T05:51:55;14.00;;;11.00;;
58661;SDS011;44432;49.786;22.760;2023-06-14T05:54:25;14.20;;;11.60;;
58661;SDS011;44432;49.786;22.760;2023-06-14T05:56:56;17.60;;;11.90;;
58661;SDS011;44432;49.786;22.760;2023-06-14T05:59:29;14.60;;;11.00;;
58661;SDS011;44432;49.786;22.760;2023-06-14T06:01:59;13.50;;;10.80;;
58661;SDS011;44432;49.786;22.760;2023-06-14T06:04:30;16.10;;;10.80;;
58661;SDS011;44432;49.786;22.760;2023-06-14T06:07:01;14.50;;;11.30;;
58661;SDS011;44432;49.786;22.760;2023-06-14T06:09:32;15.00;;;10.80;;
58661;SDS011;44432;49.786;22.760;2023-06-14T06:12:04;16.10;;;11.50;;
58661;SDS011;44432;49.786;22.760;2023-06-14T06:14:36;17.30;;;12.00;;
58661;SDS011;44432;49.786;22.760;2023-06-14T06:17:06;14.50;;;11.20;;
58661;SDS011;44432;49.786;22.760;2023-06-14T06:19:37;15.60;;;11.60;;
58661;SDS011;44432;49.786;22.760;2023-06-14T06:22:08;15.80;;;11.80;;
58661;SDS011;44432;49.786;22.760;2023-06-14T06:24:38;16.30;;;12.10;;
58661;SDS011;44432;49.786;22.760;2023-06-14T06:27:09;11.80;;;10.50;;
58661;SDS011;44432;49.786;22.760;2023-06-14T06:29:41;16.20;;;11.30;;
58661;SDS011;44432;49.786;22.760;2023-06-14T06:32:12;15.70;;;12.20;;
58661;SDS011;44432;49.786;22.760;2023-06-14T06:34:43;17.00;;;11.60;;
58661;SDS011;44432;49.786;22.760;2023-06-14T06:37:14;13.60;;;11.20;;
58661;SDS011;44432;49.786;22.760;2023-06-14T06:39:44;16.20;;;11.60;;
58661;SDS011;44432;49.786;22.760;2023-06-14T06:42:15;13.40;;;10.80;;
58661;SDS011;44432;49.786;22.760;2023-06-14T06:44:46;19.10;;;12.30;;
58661;SDS011;44432;49.786;22.760;2023-06-14T06:47:16;16.20;;;12.70;;
58661;SDS011;44432;49.786;22.760;2023-06-14T06:49:47;16.80;;;11.90;;
58661;SDS011;44432;49.786;22.760;2023-06-14T06:52:18;14.20;;;11.40;;
58661;SDS011;44432;49.786;22.760;2023-06-14T06:54:49;16.10;;;11.30;;
58661;SDS011;44432;49.786;22.760;2023-06-14T06:57:22;15.90;;;11.80;;
58661;SDS011;44432;49.786;22.760;2023-06-14T06:59:53;12.80;;;11.10;;
58661;SDS011;44432;49.786;22.760;2023-06-14T07:02:24;15.40;;;11.70;;
58661;SDS011;44432;49.786;22.760;2023-06-14T07:04:54;14.80;;;12.10;;
58661;SDS011;44432;49.786;22.760;2023-06-14T07:07:25;13.40;;;10.90;;
58661;SDS011;44432;49.786;22.760;2023-06-14T07:09:56;13.70;;;11.50;;
58661;SDS011;44432;49.786;22.760;2023-06-14T07:12:27;13.70;;;11.30;;
58661;SDS011;44432;49.786;22.760;2023-06-14T07:14:59;13.30;;;11.00;;
58661;SDS011;44432;49.786;22.760;2023-06-14T07:17:30;11.60;;;10.20;;
58661;SDS011;44432;49.786;22.760;2023-06-14T07:20:02;11.80;;;9.90;;
58661;SDS011;44432;49.786;22.760;2023-06-14T07:22:39;12.10;;;9.90;;
58661;SDS011;44432;49.786;22.760;2023-06-14T07:25:10;16.30;;;10.80;;
58661;SDS011;44432;49.786;22.760;2023-06-14T07:27:42;12.00;;;9.90;;
58661;SDS011;44432;49.786;22.760;2023-06-14T07:30:14;11.00;;;9.60;;
58661;SDS011;44432;49.786;22.760;2023-06-14T07:32:44;13.10;;;10.90;;
58661;SDS011;44432;49.786;22.760;2023-06-14T07:35:15;11.50;;;10.00;;
58661;SDS011;44432;49.786;22.760;2023-06-14T07:37:46;17.70;;;10.30;;
58661;SDS011;44432;49.786;22.760;2023-06-14T07:40:17;13.90;;;11.40;;
58661;SDS011;44432;49.786;22.760;2023-06-14T07:42:48;14.00;;;11.80;;
58661;SDS011;44432;49.786;22.760;2023-06-14T07:45:18;12.30;;;9.90;;
58661;SDS011;44432;49.786;22.760;2023-06-14T07:47:49;17.70;;;11.10;;
58661;SDS011;44432;49.786;22.760;2023-06-14T07:50:20;12.90;;;10.20;;
58661;SDS011;44432;49.786;22.760;2023-06-14T07:52:51;13.80;;;9.60;;
58661;SDS011;44432;49.786;22.760;2023-06-14T07:55:22;12.20;;;10.70;;
58661;SDS011;44432;49.786;22.760;2023-06-14T07:57:53;12.50;;;9.70;;
58661;SDS011;44432;49.786;22.760;2023-06-14T08:00:24;14.50;;;10.70;;
58661;SDS011;44432;49.786;22.760;2023-06-14T08:02:54;15.00;;;11.10;;
58661;SDS011;44432;49.786;22.760;2023-06-14T08:05:27;13.60;;;10.40;;
58661;SDS011;44432;49.786;22.760;2023-06-14T08:07:58;12.60;;;10.20;;
58661;SDS011;44432;49.786;22.760;2023-06-14T08:10:28;14.30;;;9.90;;
58661;SDS011;44432;49.786;22.760;2023-06-14T08:12:59;12.00;;;9.30;;
58661;SDS011;44432;49.786;22.760;2023-06-14T08:15:30;11.60;;;9.40;;
58661;SDS011;44432;49.786;22.760;2023-06-14T08:18:01;14.10;;;9.80;;
58661;SDS011;44432;49.786;22.760;2023-06-14T08:20:32;12.40;;;9.30;;
58661;SDS011;44432;49.786;22.760;2023-06-14T08:23:03;11.40;;;8.80;;
58661;SDS011;44432;49.786;22.760;2023-06-14T08:25:33;11.40;;;9.70;;
58661;SDS011;44432;49.786;22.760;2023-06-14T08:28:04;11.00;;;9.80;;
58661;SDS011;44432;49.786;22.760;2023-06-14T08:30:35;12.70;;;8.70;;
58661;SDS011;44432;49.786;22.760;2023-06-14T08:33:06;14.10;;;8.90;;
58661;SDS011;44432;49.786;22.760;2023-06-14T08:35:37;14.00;;;9.00;;
58661;SDS011;44432;49.786;22.760;2023-06-14T08:38:07;13.30;;;9.40;;
58661;SDS011;44432;49.786;22.760;2023-06-14T08:40:39;12.90;;;9.40;;
58661;SDS011;44432;49.786;22.760;2023-06-14T08:43:11;12.60;;;9.70;;
58661;SDS011;44432;49.786;22.760;2023-06-14T08:45:41;10.60;;;8.70;;
58661;SDS011;44432;49.786;22.760;2023-06-14T08:48:15;10.50;;;8.20;;
58661;SDS011;44432;49.786;22.760;2023-06-14T08:50:47;10.60;;;7.90;;
58661;SDS011;44432;49.786;22.760;2023-06-14T08:53:18;10.30;;;8.70;;
58661;SDS011;44432;49.786;22.760;2023-06-14T08:55:50;11.10;;;8.40;;
58661;SDS011;44432;49.786;22.760;2023-06-14T08:58:21;11.20;;;7.90;;
58661;SDS011;44432;49.786;22.760;2023-06-14T09:00:52;11.90;;;7.60;;
58661;SDS011;44432;49.786;22.760;2023-06-14T09:03:23;11.20;;;8.20;;
58661;SDS011;44432;49.786;22.760;2023-06-14T09:05:57;11.40;;;7.80;;
58661;SDS011;44432;49.786;22.760;2023-06-14T09:08:28;9.90;;;7.90;;
58661;SDS011;44432;49.786;22.760;2023-06-14T09:11:00;13.40;;;8.70;;
58661;SDS011;44432;49.786;22.760;2023-06-14T09:13:31;11.40;;;7.50;;
58661;SDS011;44432;49.786;22.760;2023-06-14T09:16:02;13.50;;;8.20;;
58661;SDS011;44432;49.786;22.760;2023-06-14T09:18:37;9.80;;;7.70;;
58661;SDS011;44432;49.786;22.760;2023-06-14T09:21:11;11.50;;;7.70;;
58661;SDS011;44432;49.786;22.760;2023-06-14T09:23:43;10.60;;;8.60;;
58661;SDS011;44432;49.786;22.760;2023-06-14T09:26:14;15.20;;;12.80;;
58661;SDS011;44432;49.786;22.760;2023-06-14T09:28:47;12.50;;;8.80;;
58661;SDS011;44432;49.786;22.760;2023-06-14T09:31:20;13.30;;;9.60;;
58661;SDS011;44432;49.786;22.760;2023-06-14T09:33:51;10.30;;;7.90;;
58661;SDS011;44432;49.786;22.760;2023-06-14T09:38:54;13.50;;;8.60;;
58661;SDS011;44432;49.786;22.760;2023-06-14T09:41:31;12.70;;;9.80;;
58661;SDS011;44432;49.786;22.760;2023-06-14T09:44:03;17.50;;;9.00;;
58661;SDS011;44432;49.786;22.760;2023-06-14T09:46:35;11.80;;;9.20;;
58661;SDS011;44432;49.786;22.760;2023-06-14T09:49:07;11.90;;;9.10;;
58661;SDS011;44432;49.786;22.760;2023-06-14T09:51:41;13.60;;;9.80;;
58661;SDS011;44432;49.786;22.760;2023-06-14T09:54:15;12.20;;;8.80;;
58661;SDS011;44432;49.786;22.760;2023-06-14T09:56:51;16.00;;;9.40;;
58661;SDS011;44432;49.786;22.760;2023-06-14T09:59:26;14.40;;;9.10;;
58661;SDS011;44432;49.786;22.760;2023-06-14T10:02:00;13.40;;;9.10;;
58661;SDS011;44432;49.786;22.760;2023-06-14T10:04:37;18.10;;;8.00;;
58661;SDS011;44432;49.786;22.760;2023-06-14T10:07:16;14.50;;;9.40;;
58661;SDS011;44432;49.786;22.760;2023-06-14T10:09:52;15.20;;;8.60;;
58661;SDS011;44432;49.786;22.760;2023-06-14T10:12:23;18.60;;;9.00;;
58661;SDS011;44432;49.786;22.760;2023-06-14T10:14:54;17.60;;;7.90;;
58661;SDS011;44432;49.786;22.760;2023-06-14T10:17:27;23.20;;;7.90;;
58661;SDS011;44432;49.786;22.760;2023-06-14T10:20:26;20.00;;;8.90;;
58661;SDS011;44432;49.786;22.760;2023-06-14T10:23:03;22.50;;;9.50;;
58661;SDS011;44432;49.786;22.760;2023-06-14T10:25:41;17.00;;;8.10;;
58661;SDS011;44432;49.786;22.760;2023-06-14T10:28:16;17.00;;;8.60;;
58661;SDS011;44432;49.786;22.760;2023-06-14T10:31:03;12.00;;;7.50;;
58661;SDS011;44432;49.786;22.760;2023-06-14T10:33:39;16.20;;;7.70;;
58661;SDS011;44432;49.786;22.760;2023-06-14T10:36:27;24.30;;;7.90;;
58661;SDS011;44432;49.786;22.760;2023-06-14T10:39:04;13.80;;;7.40;;
58661;SDS011;44432;49.786;22.760;2023-06-14T10:41:36;13.40;;;7.60;;
58661;SDS011;44432;49.786;22.760;2023-06-14T10:47:10;11.30;;;8.50;;
58661;SDS011;44432;49.786;22.760;2023-06-14T10:49:52;12.40;;;8.90;;
58661;SDS011;44432;49.786;22.760;2023-06-14T10:52:27;13.30;;;7.80;;
58661;SDS011;44432;49.786;22.760;2023-06-14T10:55:03;12.40;;;8.30;;
58661;SDS011;44432;49.786;22.760;2023-06-14T10:57:40;11.10;;;8.00;;
58661;SDS011;44432;49.786;22.760;2023-06-14T11:00:13;12.20;;;8.50;;
58661;SDS011;44432;49.786;22.760;2023-06-14T11:05:50;10.70;;;7.70;;
58661;SDS011;44432;49.786;22.760;2023-06-14T11:11:29;15.40;;;7.90;;
58661;SDS011;44432;49.786;22.760;2023-06-14T11:14:02;11.90;;;7.50;;
58661;SDS011;44432;49.786;22.760;2023-06-14T11:16:33;13.10;;;9.70;;
58661;SDS011;44432;49.786;22.760;2023-06-14T11:19:04;13.80;;;8.40;;
58661;SDS011;44432;49.786;22.760;2023-06-14T11:21:36;15.10;;;9.00;;
58661;SDS011;44432;49.786;22.760;2023-06-14T11:24:11;11.00;;;8.40;;
58661;SDS011;44432;49.786;22.760;2023-06-14T11:26:42;13.30;;;7.40;;
58661;SDS011;44432;49.786;22.760;2023-06-14T11:29:14;12.30;;;8.10;;
58661;SDS011;44432;49.786;22.760;2023-06-14T11:31:46;9.40;;;8.20;;
58661;SDS011;44432;49.786;22.760;2023-06-14T11:34:16;11.10;;;7.20;;
58661;SDS011;44432;49.786;22.760;2023-06-14T11:36:47;9.80;;;7.70;;
58661;SDS011;44432;49.786;22.760;2023-06-14T11:39:23;10.90;;;7.70;;
58661;SDS011;44432;49.786;22.760;2023-06-14T11:41:55;15.50;;;7.70;;
58661;SDS011;44432;49.786;22.760;2023-06-14T11:44:29;11.10;;;7.70;;
58661;SDS011;44432;49.786;22.760;2023-06-14T11:47:04;12.90;;;7.40;;
58661;SDS011;44432;49.786;22.760;2023-06-14T11:49:36;10.30;;;7.60;;
58661;SDS011;44432;49.786;22.760;2023-06-14T11:52:07;13.00;;;7.90;;
58661;SDS011;44432;49.786;22.760;2023-06-14T11:54:38;11.30;;;8.50;;
58661;SDS011;44432;49.786;22.760;2023-06-14T11:57:10;11.00;;;8.50;;
58661;SDS011;44432;49.786;22.760;2023-06-14T11:59:40;10.40;;;8.30;;
58661;SDS011;44432;49.786;22.760;2023-06-14T12:02:15;10.60;;;8.60;;
58661;SDS011;44432;49.786;22.760;2023-06-14T12:04:47;12.90;;;9.30;;
58661;SDS011;44432;49.786;22.760;2023-06-14T12:07:18;16.20;;;7.90;;
58661;SDS011;44432;49.786;22.760;2023-06-14T12:12:36;12.80;;;8.00;;
58661;SDS011;44432;49.786;22.760;2023-06-14T12:15:09;11.40;;;7.90;;
58661;SDS011;44432;49.786;22.760;2023-06-14T12:17:42;11.30;;;8.40;;
58661;SDS011;44432;49.786;22.760;2023-06-14T12:20:14;12.80;;;8.70;;
58661;SDS011;44432;49.786;22.760;2023-06-14T12:22:52;9.40;;;7.80;;
58661;SDS011;44432;49.786;22.760;2023-06-14T12:25:25;9.20;;;7.80;;
58661;SDS011;44432;49.786;22.760;2023-06-14T12:28:03;11.60;;;7.90;;
58661;SDS011;44432;49.786;22.760;2023-06-14T12:30:35;10.30;;;7.10;;
58661;SDS011;44432;49.786;22.760;2023-06-14T12:33:07;11.50;;;8.00;;
58661;SDS011;44432;49.786;22.760;2023-06-14T12:35:39;10.70;;;8.00;;
58661;SDS011;44432;49.786;22.760;2023-06-14T12:38:09;9.70;;;7.40;;
58661;SDS011;44432;49.786;22.760;2023-06-14T12:40:40;10.80;;;8.30;;
58661;SDS011;44432;49.786;22.760;2023-06-14T12:43:10;11.40;;;7.80;;
58661;SDS011;44432;49.786;22.760;2023-06-14T12:45:41;11.60;;;7.80;;
58661;SDS011;44432;49.786;22.760;2023-06-14T12:48:12;11.80;;;7.50;;
58661;SDS011;44432;49.786;22.760;2023-06-14T12:50:43;10.50;;;8.00;;
58661;SDS011;44432;49.786;22.760;2023-06-14T12:53:13;10.50;;;7.50;;
58661;SDS011;44432;49.786;22.760;2023-06-14T12:55:44;10.50;;;7.90;;
58661;SDS011;44432;49.786;22.760;2023-06-14T12:58:15;9.90;;;7.80;;
58661;SDS011;44432;49.786;22.760;2023-06-14T13:00:47;14.80;;;9.20;;
58661;SDS011;44432;49.786;22.760;2023-06-14T13:03:18;9.50;;;8.40;;
58661;SDS011;44432;49.786;22.760;2023-06-14T13:05:48;10.40;;;9.10;;
58661;SDS011;44432;49.786;22.760;2023-06-14T13:08:19;16.90;;;9.40;;
58661;SDS011;44432;49.786;22.760;2023-06-14T13:10:50;13.30;;;9.30;;
58661;SDS011;44432;49.786;22.760;2023-06-14T13:13:21;14.90;;;10.90;;
58661;SDS011;44432;49.786;22.760;2023-06-14T13:15:51;11.80;;;10.60;;
58661;SDS011;44432;49.786;22.760;2023-06-14T13:18:22;9.40;;;6.10;;
58661;SDS011;44432;49.786;22.760;2023-06-14T13:20:53;9.00;;;6.00;;
58661;SDS011;44432;49.786;22.760;2023-06-14T13:23:23;12.30;;;7.30;;
58661;SDS011;44432;49.786;22.760;2023-06-14T13:25:54;7.70;;;6.90;;
58661;SDS011;44432;49.786;22.760;2023-06-14T13:28:25;11.90;;;8.10;;
58661;SDS011;44432;49.786;22.760;2023-06-14T13:30:56;11.80;;;8.30;;
58661;SDS011;44432;49.786;22.760;2023-06-14T13:33:26;13.70;;;8.00;;
58661;SDS011;44432;49.786;22.760;2023-06-14T13:35:57;11.70;;;7.70;;
58661;SDS011;44432;49.786;22.760;2023-06-14T13:38:28;9.60;;;7.10;;
58661;SDS011;44432;49.786;22.760;2023-06-14T13:40:58;8.90;;;6.60;;
58661;SDS011;44432;49.786;22.760;2023-06-14T13:43:29;10.20;;;6.20;;
58661;SDS011;44432;49.786;22.760;2023-06-14T13:45:59;7.60;;;6.00;;
58661;SDS011;44432;49.786;22.760;2023-06-14T13:48:30;8.50;;;5.90;;
58661;SDS011;44432;49.786;22.760;2023-06-14T13:51:01;9.80;;;6.20;;
58661;SDS011;44432;49.786;22.760;2023-06-14T13:53:32;8.30;;;7.10;;
58661;SDS011;44432;49.786;22.760;2023-06-14T13:56:03;10.20;;;7.30;;
58661;SDS011;44432;49.786;22.760;2023-06-14T13:58:34;10.00;;;8.10;;
58661;SDS011;44432;49.786;22.760;2023-06-14T14:01:06;9.50;;;7.50;;
58661;SDS011;44432;49.786;22.760;2023-06-14T14:03:37;9.00;;;6.10;;
58661;SDS011;44432;49.786;22.760;2023-06-14T14:06:08;9.00;;;6.50;;
58661;SDS011;44432;49.786;22.760;2023-06-14T14:08:38;8.10;;;7.30;;
58661;SDS011;44432;49.786;22.760;2023-06-14T14:11:09;9.80;;;8.40;;
58661;SDS011;44432;49.786;22.760;2023-06-14T14:13:40;11.00;;;9.50;;
58661;SDS011;44432;49.786;22.760;2023-06-14T14:16:12;12.30;;;9.80;;
58661;SDS011;44432;49.786;22.760;2023-06-14T14:21:14;12.50;;;9.90;;
58661;SDS011;44432;49.786;22.760;2023-06-14T14:23:45;14.00;;;9.80;;
58661;SDS011;44432;49.786;22.760;2023-06-14T14:26:17;13.70;;;9.10;;
58661;SDS011;44432;49.786;22.760;2023-06-14T14:28:48;7.60;;;6.80;;
58661;SDS011;44432;49.786;22.760;2023-06-14T14:31:19;9.60;;;6.90;;
58661;SDS011;44432;49.786;22.760;2023-06-14T14:33:50;8.30;;;6.10;;
58661;SDS011;44432;49.786;22.760;2023-06-14T14:36:20;8.30;;;5.90;;
58661;SDS011;44432;49.786;22.760;2023-06-14T14:38:51;8.80;;;5.80;;
58661;SDS011;44432;49.786;22.760;2023-06-14T14:41:22;11.50;;;6.40;;
58661;SDS011;44432;49.786;22.760;2023-06-14T14:43:52;7.40;;;5.40;;
58661;SDS011;44432;49.786;22.760;2023-06-14T14:46:23;9.10;;;6.10;;
58661;SDS011;44432;49.786;22.760;2023-06-14T14:48:54;8.50;;;6.00;;
58661;SDS011;44432;49.786;22.760;2023-06-14T14:51:24;8.50;;;5.30;;
58661;SDS011;44432;49.786;22.760;2023-06-14T14:53:55;8.80;;;5.40;;
58661;SDS011;44432;49.786;22.760;2023-06-14T14:56:26;10.80;;;5.70;;
58661;SDS011;44432;49.786;22.760;2023-06-14T14:58:57;8.60;;;6.10;;